Lachine, MI

1:34 AM EDT on October 22, 2014 (GMT -0400)
Alpena County Regional | Change Station
CLOSE
Current Station
Airport
Location: Alpena,
Elevation: 689 ft
Nearby Weather Stations

Elev 689 ft 45.07 °N, 83.56 °W | Updated 40 minutes ago

Overcast
Overcast
39 °F
Feels Like 33 °F
N
8
Wind Variable Wind from NE

Today
High -- | Low -- °F
--% Chance of Precip.
Yesterday
High -- | Low -- °F
Precip. -- in
7:59 AM 6:38 PM
Waning Crescent, 3% visible
Pressure 30.33 in
Visibility 10.0 miles
Clouds Overcast 2400 ft
Windchill 33 °F
Dew Point 31 °F
Humidity 73%
Rainfall 0.00 in
Snow Depth Not available.
UV 0 out of 12
Pollen .80 out of 12
Ozone Good
PM2.5 Good
Flu Activity Sporadic
METAR KAPN 220454Z AUTO 05007KT 10SM OVC024 04/M01 A3031 RMK AO2 SLP270 T00391006 400831011

More Conditions Fewer Conditions

Pressure 30.33 in
Visibility 10.0 miles
Clouds Overcast 2400 ft
Windchill 33 °F
Dew Point 31 °F
Humidity 73%
Rainfall 0.00 in
Snow Depth Not available.
UV 0 out of 12
Pollen .80 out of 12
Ozone Good
PM2.5 Good
Flu Activity Sporadic
METAR KAPN 220454Z AUTO 05007KT 10SM OVC024 04/M01 A3031 RMK AO2 SLP270 T00391006 400831011

More Conditions Fewer Conditions

Nowcast | as of 1:00 am EDT on October 22, 2014

At 2 am...mostly cloudy. Temperature 39. Northeast winds 6 mph. At 4 am...mostly cloudy. Temperature 41. Northeast winds 6 mph. At 6 am...mostly cloudy. Temperature 39. Northeast winds 6 mph. At 8 am...mostly cloudy. Temperature 36. Light winds.

×

10-Day Weather Forecast

Almanac

Astronomy

Oct. 22, 2014 Rise Set
Actual Time 7:59 AM EDT 6:38 PM EDT
Civil Twilight 7:29 AM EDT 7:08 PM EDT
Nautical Twilight 6:55 AM EDT 7:42 PM EDT
Astronomical Twilight 6:21 AM EDT 8:16 PM EDT
Moon 6:37 AM EDT 6:06 PM EDT
Length of Visible Light 11h 38m
Length of Day
10h 38m
Tomorrow will be 2m 57s shorter.
Waning Crescent, 3% of the Moon is Illuminated
Today
Waning Crescent
Oct 23
New
Oct 30
First Quarter
Nov 6
Full
Nov 14
Last Quarter

Today's Extremes

State Highs State Lows

Community

WunderPhotos

Upload Photos

1,763,884 photos uploaded!

Nearby

Air Quality

  Air Quality AQ Index Pollutant
Yesterday Good
OZONE
Yesterday Good
PM2.5
Current Good
PM2.5
Current Good
OZONE
Wednesday Good
PM2.5
Thursday Good
PM2.5
Friday Good
PM2.5
Saturday Good
PM2.5

Snow Depth

Station Depth Elevation
No new snow has been reported.

Earthquake Activity

City Distance Mag. Time & Date
No recent earthquake activity has been reported nearby.
Minimum magnitude displayed is 2.5.

Coastal Water Temperatures

Place Temperature
Alpena, MI 57.0 °F

Nearby Weather Stations